Time;durP1;ratioP1;P1;durP2;ratioP2;P2;SDS_P1;SDS_P2;PMS_P1;PMS_P2;Temp;Humidity;BMP_temperature;BMP_pressure;BME280_temperature;BME280_humidity;BME280_pressure;Samples;Min_cycle;Max_cycle;Signal;HPM_P1;HPM_P2
2022/05/06 00:00:16;;;;;;;49.67;27.20;;;;;;;;;;5016929;28;93110;-71
2022/05/06 00:02:42;;;;;;;46.38;26.80;;;;;;;;;;5013819;28;92377;-71
2022/05/06 00:05:11;;;;;;;49.67;26.42;;;;;;;;;;5012655;28;93341;-71
2022/05/06 00:07:37;;;;;;;56.05;28.38;;;;;;;;;;5013492;28;93675;-71
2022/05/06 00:10:04;;;;;;;49.13;25.52;;;;;;;;;;5013746;28;92464;-71
2022/05/06 00:12:31;;;;;;;49.08;26.25;;;;;;;;;;5014261;28;93244;-72
2022/05/06 00:14:58;;;;;;;43.65;24.38;;;;;;;;;;5013533;28;93499;-71
2022/05/06 00:17:24;;;;;;;50.30;26.00;;;;;;;;;;5013358;28;92476;-71
2022/05/06 00:19:51;;;;;;;54.50;26.92;;;;;;;;;;5012299;28;94784;-71
2022/05/06 00:22:18;;;;;;;41.22;24.77;;;;;;;;;;5014828;28;93572;-71
2022/05/06 00:24:44;;;;;;;42.88;22.92;;;;;;;;;;5013510;28;93359;-71
2022/05/06 00:27:11;;;;;;;44.00;25.20;;;;;;;;;;5013822;28;96935;-71
2022/05/06 00:29:37;;;;;;;42.78;23.10;;;;;;;;;;5011889;28;92364;-71
2022/05/06 00:32:03;;;;;;;47.70;25.30;;;;;;;;;;5012255;28;93346;-71
2022/05/06 00:34:30;;;;;;;47.33;24.38;;;;;;;;;;5011976;28;93299;-71
2022/05/06 00:36:56;;;;;;;43.92;23.17;;;;;;;;;;5014457;28;91773;-72
2022/05/06 00:39:23;;;;;;;37.47;20.95;;;;;;;;;;5014029;28;94885;-71
2022/05/06 00:41:52;;;;;;;36.83;20.15;;;;;;;;;;5013042;28;93588;-71
2022/05/06 00:44:18;;;;;;;43.17;20.40;;;;;;;;;;5014685;28;94880;-72
2022/05/06 00:46:45;;;;;;;37.63;20.50;;;;;;;;;;5012624;28;93903;-71
2022/05/06 00:49:12;;;;;;;39.25;21.88;;;;;;;;;;5012990;28;92507;-72
2022/05/06 00:51:39;;;;;;;40.15;22.25;;;;;;;;;;5013639;28;93188;-71
2022/05/06 00:54:06;;;;;;;41.03;22.20;;;;;;;;;;5012995;28;93498;-71
2022/05/06 00:56:33;;;;;;;39.22;21.55;;;;;;;;;;5013060;28;92530;-71
2022/05/06 00:58:59;;;;;;;42.42;22.17;;;;;;;;;;5013764;28;94544;-72
2022/05/06 01:01:25;;;;;;;38.45;22.77;;;;;;;;;;5014221;28;92993;-71
2022/05/06 01:03:53;;;;;;;42.50;23.45;;;;;;;;;;5012803;28;92422;-72
2022/05/06 01:06:21;;;;;;;46.28;23.88;;;;;;;;;;5016612;28;92430;-71
2022/05/06 01:08:47;;;;;;;60.03;29.42;;;;;;;;;;5011452;28;94964;-71
2022/05/06 01:11:14;;;;;;;65.18;28.60;;;;;;;;;;5012977;28;95566;-72
2022/05/06 01:13:43;;;;;;;65.43;30.83;;;;;;;;;;5012632;28;93323;-72
2022/05/06 01:16:10;;;;;;;100.57;32.08;;;;;;;;;;5013757;28;92349;-71
2022/05/06 01:18:36;;;;;;;104.40;31.60;;;;;;;;;;5016897;28;96578;-71
2022/05/06 01:21:04;;;;;;;119.80;31.88;;;;;;;;;;5015747;28;92785;-71
2022/05/06 01:23:31;;;;;;;271.00;33.40;;;;;;;;;;5016708;28;92359;-71
2022/05/06 01:25:57;;;;;;;134.43;27.88;;;;;;;;;;5002118;28;93379;-71
2022/05/06 01:28:24;;;;;;;116.68;26.98;;;;;;;;;;5016131;28;92466;-71
2022/05/06 01:30:54;;;;;;;131.50;29.02;;;;;;;;;;5016776;28;97002;-71
2022/05/06 01:33:21;;;;;;;182.35;29.70;;;;;;;;;;5014898;28;97116;-71
2022/05/06 01:35:50;;;;;;;79.40;27.83;;;;;;;;;;4998751;28;92370;-71
2022/05/06 01:38:37;;;;;;;161.00;28.50;;;;;;;;;;5016576;28;94431;-71
2022/05/06 01:41:05;;;;;;;71.05;25.05;;;;;;;;;;4999296;28;94532;-71
2022/05/06 01:43:39;;;;;;;109.38;23.88;;;;;;;;;;5015816;28;92476;-71
2022/05/06 01:46:06;;;;;;;279.88;27.65;;;;;;;;;;5015644;28;92402;-71
2022/05/06 01:48:34;;;;;;;278.95;27.08;;;;;;;;;;5018732;28;93306;-71
2022/05/06 01:51:01;;;;;;;412.17;27.38;;;;;;;;;;5016170;28;92699;-71
2022/05/06 01:53:28;;;;;;;100.00;21.73;;;;;;;;;;5015692;28;93499;-71
2022/05/06 01:55:54;;;;;;;109.53;21.98;;;;;;;;;;4997762;28;92478;-71
2022/05/06 01:58:20;;;;;;;251.80;24.52;;;;;;;;;;5014679;28;94752;-72
2022/05/06 02:00:47;;;;;;;199.57;22.70;;;;;;;;;;5015824;28;93611;-71
2022/05/06 02:05:58;;;;;;;177.73;23.40;;;;;;;;;;5016055;28;94328;-71
2022/05/06 02:08:24;;;;;;;233.70;22.98;;;;;;;;;;4997671;28;94052;-71
2022/05/06 02:10:51;;;;;;;152.05;20.98;;;;;;;;;;5018678;28;92385;-71
2022/05/06 02:13:19;;;;;;;179.50;22.08;;;;;;;;;;4997827;28;95122;-71
2022/05/06 02:15:45;;;;;;;365.70;24.73;;;;;;;;;;5015904;28;91641;-71
2022/05/06 02:18:11;;;;;;;241.27;23.42;;;;;;;;;;5015274;28;92453;-72
2022/05/06 02:20:38;;;;;;;211.35;21.35;;;;;;;;;;5015169;28;93289;-72
2022/05/06 02:23:04;;;;;;;489.20;27.60;;;;;;;;;;4995833;28;95020;-71
2022/05/06 02:25:30;;;;;;;405.90;26.45;;;;;;;;;;4997167;28;95390;-71
2022/05/06 02:27:57;;;;;;;266.92;25.67;;;;;;;;;;5014444;28;93332;-71
2022/05/06 02:33:14;;;;;;;359.88;25.63;;;;;;;;;;5018279;28;93621;-71
2022/05/06 02:35:41;;;;;;;137.85;21.88;;;;;;;;;;5015153;28;93006;-71
2022/05/06 02:38:09;;;;;;;138.85;22.17;;;;;;;;;;5015006;28;93020;-71
2022/05/06 02:40:36;;;;;;;306.27;23.95;;;;;;;;;;5015712;28;92608;-71
2022/05/06 02:43:03;;;;;;;221.13;23.08;;;;;;;;;;5015052;28;92745;-71
2022/05/06 02:45:30;;;;;;;126.30;20.98;;;;;;;;;;4997024;28;93320;-72
2022/05/06 02:47:57;;;;;;;119.40;20.65;;;;;;;;;;5013399;28;96983;-71
2022/05/06 02:50:24;;;;;;;112.80;22.33;;;;;;;;;;5015506;28;92398;-72
2022/05/06 02:52:50;;;;;;;249.93;24.92;;;;;;;;;;5014834;28;93073;-71
2022/05/06 02:55:17;;;;;;;159.43;22.42;;;;;;;;;;5018159;28;93456;-72
2022/05/06 02:57:43;;;;;;;306.40;23.40;;;;;;;;;;4997473;28;93945;-71
2022/05/06 03:00:10;;;;;;;260.48;22.73;;;;;;;;;;5014636;28;93544;-71
2022/05/06 03:02:36;;;;;;;273.45;23.08;;;;;;;;;;4996962;28;92438;-71
2022/05/06 03:05:03;;;;;;;146.82;20.38;;;;;;;;;;5014820;28;93218;-71
2022/05/06 03:07:29;;;;;;;175.98;21.50;;;;;;;;;;5014373;28;92491;-71
2022/05/06 03:09:55;;;;;;;182.93;21.85;;;;;;;;;;5015045;28;92460;-71
2022/05/06 03:12:26;;;;;;;101.47;20.52;;;;;;;;;;5013662;28;95142;-72
2022/05/06 03:14:52;;;;;;;113.05;19.67;;;;;;;;;;5014693;28;93692;-71
2022/05/06 03:17:19;;;;;;;340.35;25.17;;;;;;;;;;5017387;28;92518;-72
2022/05/06 03:19:45;;;;;;;89.13;18.90;;;;;;;;;;4997155;28;96608;-72
2022/05/06 03:22:12;;;;;;;65.85;19.30;;;;;;;;;;5015002;28;93538;-71
2022/05/06 03:24:39;;;;;;;117.40;18.02;;;;;;;;;;5014893;28;93048;-71
2022/05/06 03:27:59;;;;;;;141.82;18.17;;;;;;;;;;5014617;28;92508;-71
2022/05/06 03:29:53;;;;;;;155.60;18.65;;;;;;;;;;5014861;28;91907;-71
2022/05/06 03:32:20;;;;;;;287.33;20.02;;;;;;;;;;5014569;28;94196;-71
2022/05/06 03:34:46;;;;;;;70.55;17.38;;;;;;;;;;5014152;28;93623;-71
2022/05/06 03:37:12;;;;;;;167.50;18.27;;;;;;;;;;5016443;28;94833;-71
2022/05/06 03:39:39;;;;;;;179.75;17.42;;;;;;;;;;5014329;28;93806;-72
2022/05/06 03:42:05;;;;;;;116.32;17.23;;;;;;;;;;5014234;28;92478;-71
2022/05/06 03:44:32;;;;;;;214.93;18.90;;;;;;;;;;5012992;28;93135;-72
2022/05/06 03:46:58;;;;;;;59.90;17.85;;;;;;;;;;5013994;28;93628;-71
2022/05/06 03:49:25;;;;;;;142.50;17.77;;;;;;;;;;4996200;28;92416;-71
2022/05/06 03:51:51;;;;;;;50.60;16.50;;;;;;;;;;4980466;28;95602;-71
2022/05/06 03:54:17;;;;;;;78.40;16.55;;;;;;;;;;5014542;28;93035;-72
2022/05/06 03:56:44;;;;;;;81.57;16.75;;;;;;;;;;5013685;28;92401;-71
2022/05/06 03:59:10;;;;;;;119.05;15.52;;;;;;;;;;5017158;28;93191;-71
2022/05/06 04:01:36;;;;;;;92.55;15.07;;;;;;;;;;5011288;28;94926;-72
2022/05/06 04:04:04;;;;;;;104.90;15.68;;;;;;;;;;5013912;28;98987;-71
2022/05/06 04:06:30;;;;;;;147.98;16.10;;;;;;;;;;4996308;28;93642;-71
2022/05/06 04:08:57;;;;;;;103.53;16.58;;;;;;;;;;5014169;28;92432;-71
2022/05/06 04:11:24;;;;;;;101.25;16.17;;;;;;;;;;5013928;28;94848;-72
2022/05/06 04:13:51;;;;;;;161.32;17.10;;;;;;;;;;4995936;28;93385;-71
2022/05/06 04:16:17;;;;;;;260.75;18.15;;;;;;;;;;5014452;28;92418;-72
2022/05/06 04:18:44;;;;;;;212.65;16.10;;;;;;;;;;5014672;28;93532;-71
2022/05/06 04:23:59;;;;;;;85.72;15.85;;;;;;;;;;4970934;28;93030;-71
2022/05/06 04:26:26;;;;;;;211.88;16.55;;;;;;;;;;4954139;28;95672;-71
2022/05/06 04:28:52;;;;;;;165.27;16.48;;;;;;;;;;4955591;28;93731;-71
2022/05/06 04:31:18;;;;;;;108.82;16.33;;;;;;;;;;4955778;28;93765;-71
2022/05/06 04:33:45;;;;;;;271.23;18.50;;;;;;;;;;4955207;28;93515;-71
2022/05/06 04:36:11;;;;;;;416.08;22.27;;;;;;;;;;4971673;28;92552;-71
2022/05/06 04:38:37;;;;;;;321.80;22.80;;;;;;;;;;4955338;28;93445;-71
2022/05/06 04:41:04;;;;;;;209.90;22.40;;;;;;;;;;4971460;28;93421;-73
2022/05/06 04:43:30;;;;;;;223.80;22.60;;;;;;;;;;4975378;28;91719;-71
2022/05/06 04:45:57;;;;;;;263.17;21.27;;;;;;;;;;4971168;28;93482;-71
2022/05/06 04:48:24;;;;;;;186.30;18.20;;;;;;;;;;4971328;28;92533;-71
2022/05/06 04:50:50;;;;;;;171.30;19.17;;;;;;;;;;4970723;28;94794;-72
2022/05/06 04:53:17;;;;;;;125.53;17.50;;;;;;;;;;4975174;28;94440;-73
2022/05/06 04:55:46;;;;;;;254.30;20.02;;;;;;;;;;4974581;28;92521;-72
2022/05/06 04:58:14;;;;;;;193.68;19.25;;;;;;;;;;4974980;28;93349;-71
2022/05/06 05:00:40;;;;;;;58.63;17.30;;;;;;;;;;4987554;28;93503;-71
2022/05/06 05:03:07;;;;;;;79.20;18.63;;;;;;;;;;5016786;28;92472;-71
2022/05/06 05:05:33;;;;;;;311.90;21.08;;;;;;;;;;5018981;28;93088;-71
2022/05/06 05:08:00;;;;;;;35.58;17.10;;;;;;;;;;5017551;28;91668;-71
2022/05/06 05:10:26;;;;;;;158.85;19.92;;;;;;;;;;5016978;28;93602;-71
2022/05/06 05:12:53;;;;;;;159.52;19.42;;;;;;;;;;5016574;28;93413;-71
2022/05/06 05:15:19;;;;;;;166.15;20.40;;;;;;;;;;5013561;28;95241;-71
2022/05/06 05:17:46;;;;;;;184.45;21.92;;;;;;;;;;5016553;28;95331;-71
2022/05/06 05:20:13;;;;;;;117.25;20.75;;;;;;;;;;5015763;28;93441;-71
2022/05/06 05:22:40;;;;;;;143.38;20.65;;;;;;;;;;5016385;28;92756;-71
2022/05/06 05:25:06;;;;;;;53.10;20.15;;;;;;;;;;5016404;28;93339;-71
2022/05/06 05:27:33;;;;;;;235.27;22.05;;;;;;;;;;5001876;28;94201;-71
2022/05/06 05:29:59;;;;;;;76.80;18.73;;;;;;;;;;5016424;28;93296;-71
2022/05/06 05:32:26;;;;;;;283.42;22.30;;;;;;;;;;5016746;28;93178;-71
2022/05/06 05:34:52;;;;;;;174.35;22.05;;;;;;;;;;5015986;28;92456;-71
2022/05/06 05:37:18;;;;;;;144.35;21.30;;;;;;;;;;5016097;28;93316;-71
2022/05/06 05:39:45;;;;;;;172.95;22.38;;;;;;;;;;5014779;28;95608;-71
2022/05/06 05:42:13;;;;;;;60.20;20.35;;;;;;;;;;5014976;28;92488;-71
2022/05/06 05:50:09;;;;;;;67.45;20.15;;;;;;;;;;4995692;28;93230;-71
2022/05/06 05:52:35;;;;;;;65.80;20.02;;;;;;;;;;4995751;28;93057;-71
2022/05/06 05:55:02;;;;;;;42.42;19.33;;;;;;;;;;4996105;28;92418;-71
2022/05/06 05:57:29;;;;;;;96.70;19.60;;;;;;;;;;4996894;28;93049;-71
2022/05/06 05:59:55;;;;;;;164.55;20.55;;;;;;;;;;4995849;28;93237;-71
2022/05/06 06:02:22;;;;;;;49.95;18.85;;;;;;;;;;4994856;28;92388;-71
2022/05/06 06:04:49;;;;;;;27.45;16.42;;;;;;;;;;4993692;28;94740;-71
2022/05/06 06:07:15;;;;;;;27.25;15.15;;;;;;;;;;4977863;28;93232;-71
2022/05/06 06:09:42;;;;;;;32.83;15.30;;;;;;;;;;4999072;28;92410;-71
2022/05/06 06:12:09;;;;;;;32.83;13.80;;;;;;;;;;4995406;28;93032;-71
2022/05/06 06:14:35;;;;;;;30.80;15.35;;;;;;;;;;4995602;28;92469;-71
2022/05/06 06:17:02;;;;;;;24.33;14.85;;;;;;;;;;4995672;28;93599;-71
2022/05/06 06:19:31;;;;;;;25.08;14.65;;;;;;;;;;4998085;28;94411;-71
2022/05/06 06:21:58;;;;;;;26.40;15.07;;;;;;;;;;5015982;28;91775;-71
2022/05/06 06:24:24;;;;;;;23.13;13.50;;;;;;;;;;5015299;28;92742;-71
2022/05/06 06:26:50;;;;;;;62.28;14.18;;;;;;;;;;5013622;28;94313;-71
2022/05/06 06:29:17;;;;;;;39.05;15.18;;;;;;;;;;4996006;28;94745;-71
2022/05/06 06:31:43;;;;;;;22.25;14.93;;;;;;;;;;5018204;28;95968;-71
2022/05/06 06:34:09;;;;;;;19.33;13.55;;;;;;;;;;4997121;28;92522;-71
2022/05/06 06:36:36;;;;;;;36.00;14.05;;;;;;;;;;5015184;28;93447;-72
2022/05/06 06:39:02;;;;;;;31.52;13.85;;;;;;;;;;4997691;28;94339;-71
2022/05/06 06:41:28;;;;;;;20.92;13.45;;;;;;;;;;5013582;28;92516;-71
2022/05/06 06:43:56;;;;;;;20.77;14.18;;;;;;;;;;5015033;28;93222;-71
2022/05/06 06:46:22;;;;;;;21.63;12.35;;;;;;;;;;5015344;28;92623;-71
2022/05/06 06:48:49;;;;;;;21.23;13.02;;;;;;;;;;5014713;28;92513;-71
2022/05/06 06:51:15;;;;;;;23.52;12.07;;;;;;;;;;5014778;28;93027;-71
2022/05/06 06:53:41;;;;;;;16.55;11.85;;;;;;;;;;5016243;28;95911;-71
2022/05/06 06:56:07;;;;;;;18.60;11.43;;;;;;;;;;5014620;28;95441;-71
2022/05/06 06:58:34;;;;;;;18.38;12.00;;;;;;;;;;5015303;28;93294;-71
2022/05/06 07:01:00;;;;;;;18.10;11.80;;;;;;;;;;4996911;28;92431;-71
2022/05/06 07:03:27;;;;;;;21.70;11.68;;;;;;;;;;5014849;28;96399;-71
2022/05/06 07:14:08;;;;;;;15.55;11.77;;;;;;;;;;5013789;28;93243;-71
2022/05/06 07:16:35;;;;;;;17.52;11.95;;;;;;;;;;5017164;28;92445;-71
2022/05/06 07:19:02;;;;;;;16.08;11.88;;;;;;;;;;5012493;28;95824;-71
2022/05/06 07:21:28;;;;;;;14.38;11.43;;;;;;;;;;5014183;28;92472;-71
2022/05/06 07:23:54;;;;;;;14.52;11.68;;;;;;;;;;5014537;28;93137;-71
2022/05/06 07:26:20;;;;;;;16.35;12.10;;;;;;;;;;4996902;28;94512;-71
2022/05/06 07:28:47;;;;;;;22.65;13.82;;;;;;;;;;5014876;28;94103;-71
2022/05/06 07:31:13;;;;;;;17.58;13.15;;;;;;;;;;4996470;28;93015;-71
2022/05/06 07:33:39;;;;;;;19.92;13.82;;;;;;;;;;5013902;28;92415;-71
2022/05/06 07:36:06;;;;;;;15.93;12.45;;;;;;;;;;5014435;28;91703;-71
2022/05/06 07:38:32;;;;;;;17.98;13.48;;;;;;;;;;5017078;28;92541;-71
2022/05/06 07:41:01;;;;;;;17.65;13.50;;;;;;;;;;5013946;28;92773;-71
2022/05/06 07:43:27;;;;;;;16.17;12.95;;;;;;;;;;5012904;28;94852;-71
2022/05/06 07:45:53;;;;;;;16.70;12.40;;;;;;;;;;5013701;28;93892;-71
2022/05/06 07:48:20;;;;;;;17.73;13.05;;;;;;;;;;5014314;28;92475;-71
2022/05/06 07:50:47;;;;;;;21.90;13.52;;;;;;;;;;5012715;28;93294;-71
2022/05/06 07:53:13;;;;;;;17.50;12.10;;;;;;;;;;5012553;28;93372;-71
2022/05/06 07:55:47;;;;;;;18.27;13.32;;;;;;;;;;5014332;28;92468;-71
2022/05/06 07:58:13;;;;;;;17.30;13.95;;;;;;;;;;5017258;28;93977;-71
2022/05/06 08:00:39;;;;;;;18.13;12.82;;;;;;;;;;5014553;28;91623;-72
2022/05/06 08:05:56;;;;;;;19.50;12.63;;;;;;;;;;5013345;28;93535;-71
2022/05/06 08:08:25;;;;;;;18.00;13.10;;;;;;;;;;5012402;28;94779;-71
2022/05/06 08:10:51;;;;;;;14.13;10.95;;;;;;;;;;5013834;28;99069;-71
2022/05/06 08:13:18;;;;;;;16.08;12.15;;;;;;;;;;5013913;28;94114;-71
2022/05/06 08:15:49;;;;;;;15.48;11.77;;;;;;;;;;5013483;28;92546;-71
2022/05/06 08:18:16;;;;;;;14.07;11.90;;;;;;;;;;5013806;28;93647;-73
2022/05/06 08:20:42;;;;;;;15.10;12.25;;;;;;;;;;5016183;28;93560;-73
2022/05/06 08:23:09;;;;;;;13.95;11.63;;;;;;;;;;5012203;28;93177;-72
2022/05/06 08:25:35;;;;;;;19.10;12.70;;;;;;;;;;5013719;28;92745;-72
2022/05/06 08:28:05;;;;;;;18.30;12.70;;;;;;;;;;5016995;28;92719;-72
2022/05/06 08:30:32;;;;;;;15.82;11.88;;;;;;;;;;5017202;28;93045;-72
2022/05/06 08:32:58;;;;;;;15.95;11.82;;;;;;;;;;5015283;28;96016;-72
2022/05/06 08:35:24;;;;;;;13.93;11.25;;;;;;;;;;5017197;28;92368;-72
2022/05/06 08:37:51;;;;;;;17.60;11.80;;;;;;;;;;5016941;28;93411;-71
2022/05/06 08:40:18;;;;;;;13.00;10.55;;;;;;;;;;5017443;28;92442;-71
2022/05/06 08:42:45;;;;;;;18.10;11.77;;;;;;;;;;5020133;28;92475;-72
2022/05/06 08:50:52;;;;;;;16.77;11.18;;;;;;;;;;5016474;28;93175;-71
2022/05/06 08:53:23;;;;;;;14.05;10.52;;;;;;;;;;5016669;28;93603;-72
2022/05/06 08:55:49;;;;;;;13.48;11.23;;;;;;;;;;4998924;28;92507;-72
2022/05/06 08:58:16;;;;;;;11.82;10.52;;;;;;;;;;4997388;28;94927;-73
2022/05/06 09:00:42;;;;;;;13.07;10.88;;;;;;;;;;5016676;28;93417;-71
2022/05/06 09:03:09;;;;;;;12.40;10.80;;;;;;;;;;5016055;28;92425;-72
2022/05/06 09:05:52;;;;;;;13.40;11.00;;;;;;;;;;5018023;28;93219;-72
2022/05/06 09:08:19;;;;;;;12.90;10.85;;;;;;;;;;5015174;28;92405;-72
2022/05/06 09:11:03;;;;;;;12.63;10.65;;;;;;;;;;5016418;28;93030;-72
2022/05/06 09:13:31;;;;;;;13.15;10.30;;;;;;;;;;5016248;28;94488;-72
2022/05/06 09:19:15;;;;;;;10.95;9.50;;;;;;;;;;5016053;28;93577;-72
2022/05/06 09:22:00;;;;;;;11.75;9.63;;;;;;;;;;5016506;28;93622;-72
2022/05/06 09:24:28;;;;;;;11.98;8.88;;;;;;;;;;5015664;28;94936;-72
2022/05/06 09:26:59;;;;;;;11.73;8.95;;;;;;;;;;5017656;28;95225;-72
2022/05/06 09:29:33;;;;;;;11.25;8.57;;;;;;;;;;5019701;28;93631;-72
2022/05/06 09:32:12;;;;;;;10.32;8.32;;;;;;;;;;5016704;28;93331;-73
2022/05/06 09:34:40;;;;;;;10.80;6.80;;;;;;;;;;5017161;28;92470;-72
2022/05/06 09:37:07;;;;;;;10.25;7.80;;;;;;;;;;5016387;28;92747;-72
2022/05/06 09:39:33;;;;;;;9.18;7.35;;;;;;;;;;5017508;28;95984;-72
2022/05/06 09:42:04;;;;;;;8.60;6.65;;;;;;;;;;5016919;28;92737;-73
2022/05/06 09:44:30;;;;;;;7.43;6.60;;;;;;;;;;5016674;28;92482;-73
2022/05/06 09:47:06;;;;;;;7.38;6.55;;;;;;;;;;5016524;28;94180;-72
2022/05/06 09:49:37;;;;;;;9.15;6.72;;;;;;;;;;5013481;28;96127;-72
2022/05/06 09:52:10;;;;;;;10.35;7.78;;;;;;;;;;5019670;28;92412;-73
2022/05/06 09:54:38;;;;;;;8.80;7.25;;;;;;;;;;5015257;28;93283;-72
2022/05/06 09:57:05;;;;;;;11.02;7.30;;;;;;;;;;4998753;28;92829;-72
2022/05/06 09:59:31;;;;;;;9.10;6.75;;;;;;;;;;5016437;28;92806;-72
2022/05/06 10:01:57;;;;;;;8.27;5.90;;;;;;;;;;5016183;28;93255;-73
2022/05/06 10:04:23;;;;;;;20.33;7.30;;;;;;;;;;5014908;28;92432;-72
2022/05/06 10:06:50;;;;;;;9.25;6.65;;;;;;;;;;5017454;28;93923;-72
2022/05/06 10:09:21;;;;;;;10.48;6.28;;;;;;;;;;5015987;28;93228;-72
2022/05/06 10:11:47;;;;;;;7.88;6.82;;;;;;;;;;5019406;28;92509;-72
2022/05/06 10:14:14;;;;;;;6.97;5.75;;;;;;;;;;5014932;28;96893;-72
2022/05/06 10:16:41;;;;;;;7.53;6.43;;;;;;;;;;5016457;28;92403;-72
2022/05/06 10:19:40;;;;;;;7.15;6.45;;;;;;;;;;5016119;28;93061;-72
2022/05/06 10:22:06;;;;;;;7.65;6.57;;;;;;;;;;4981992;28;93182;-73
2022/05/06 10:24:43;;;;;;;8.43;6.80;;;;;;;;;;5016172;28;92436;-72
2022/05/06 10:27:23;;;;;;;11.55;7.50;;;;;;;;;;4998509;28;93282;-73
2022/05/06 10:32:53;;;;;;;11.00;6.97;;;;;;;;;;5016279;28;91742;-72
2022/05/06 10:35:35;;;;;;;10.18;7.05;;;;;;;;;;5019212;28;92483;-72
2022/05/06 10:38:14;;;;;;;18.25;7.90;;;;;;;;;;5014890;28;92600;-70
2022/05/06 10:40:47;;;;;;;9.05;6.97;;;;;;;;;;5015048;28;94956;-72
2022/05/06 10:43:32;;;;;;;10.02;6.75;;;;;;;;;;5015513;28;93415;-72
2022/05/06 10:45:59;;;;;;;13.07;7.28;;;;;;;;;;5015953;28;92481;-72
2022/05/06 10:48:25;;;;;;;12.35;7.75;;;;;;;;;;5014913;28;93104;-72
2022/05/06 10:50:51;;;;;;;10.25;7.50;;;;;;;;;;5015329;28;93360;-72
2022/05/06 10:53:34;;;;;;;11.38;7.13;;;;;;;;;;4997869;28;92500;-73
2022/05/06 10:56:00;;;;;;;18.25;6.60;;;;;;;;;;5015377;28;93505;-73
2022/05/06 10:58:27;;;;;;;8.82;7.20;;;;;;;;;;5018976;28;93113;-72
2022/05/06 11:00:58;;;;;;;15.98;6.85;;;;;;;;;;4997857;28;92456;-72
2022/05/06 11:03:24;;;;;;;9.25;4.45;;;;;;;;;;5014679;28;93575;-73
2022/05/06 11:05:52;;;;;;;7.18;5.05;;;;;;;;;;5013776;28;94906;-72
2022/05/06 11:08:21;;;;;;;10.35;6.05;;;;;;;;;;5014194;28;95539;-73
2022/05/06 11:10:54;;;;;;;7.55;6.38;;;;;;;;;;5015136;28;93441;-73
2022/05/06 11:13:31;;;;;;;9.73;6.93;;;;;;;;;;5014019;28;92743;-72
2022/05/06 11:16:04;;;;;;;8.40;6.85;;;;;;;;;;5015354;28;93301;-71
2022/05/06 11:18:40;;;;;;;11.40;6.32;;;;;;;;;;5015074;28;94794;-71
2022/05/06 11:21:18;;;;;;;6.43;5.63;;;;;;;;;;5018372;28;92452;-70
2022/05/06 11:23:44;;;;;;;9.98;6.43;;;;;;;;;;4997644;28;91687;-71
2022/05/06 11:26:22;;;;;;;10.05;7.35;;;;;;;;;;4997172;28;92460;-70
2022/05/06 11:29:01;;;;;;;9.45;7.10;;;;;;;;;;4996785;28;93167;-71
2022/05/06 11:31:28;;;;;;;16.23;6.97;;;;;;;;;;5013124;28;96186;-70
2022/05/06 11:33:56;;;;;;;10.63;7.22;;;;;;;;;;5014928;28;92401;-70
2022/05/06 11:36:22;;;;;;;10.40;6.80;;;;;;;;;;5015062;28;93796;-70
2022/05/06 11:38:48;;;;;;;8.57;5.90;;;;;;;;;;5014726;28;93519;-72
2022/05/06 11:41:16;;;;;;;7.25;5.80;;;;;;;;;;5015286;28;92364;-72
2022/05/06 11:43:43;;;;;;;11.35;6.90;;;;;;;;;;5017821;28;93160;-72
2022/05/06 11:49:04;;;;;;;9.77;6.18;;;;;;;;;;5015059;28;93469;-72
2022/05/06 11:51:34;;;;;;;12.32;6.60;;;;;;;;;;5014754;28;94931;-72
2022/05/06 11:54:00;;;;;;;9.77;7.65;;;;;;;;;;5013112;28;92532;-72
2022/05/06 11:56:33;;;;;;;10.93;7.40;;;;;;;;;;5013587;28;94835;-72
2022/05/06 11:59:00;;;;;;;12.65;6.30;;;;;;;;;;5014400;28;93491;-72
2022/05/06 12:01:27;;;;;;;13.82;6.70;;;;;;;;;;4996841;28;92527;-73
2022/05/06 12:03:57;;;;;;;13.43;6.90;;;;;;;;;;5017376;28;94366;-72
2022/05/06 12:06:32;;;;;;;13.55;6.60;;;;;;;;;;5013591;28;92473;-73
2022/05/06 12:09:14;;;;;;;9.93;6.35;;;;;;;;;;5014456;28;93008;-72
2022/05/06 12:11:41;;;;;;;18.08;8.57;;;;;;;;;;5013115;28;93425;-73
2022/05/06 12:14:08;;;;;;;14.10;9.27;;;;;;;;;;5014793;28;91700;-73
2022/05/06 12:16:35;;;;;;;13.77;8.90;;;;;;;;;;5014953;28;92483;-73
2022/05/06 12:19:01;;;;;;;14.90;8.30;;;;;;;;;;5014655;28;93082;-73
2022/05/06 12:21:28;;;;;;;12.77;6.85;;;;;;;;;;5012911;28;94909;-73
2022/05/06 12:23:58;;;;;;;12.00;7.68;;;;;;;;;;5013982;28;95770;-73
2022/05/06 12:26:25;;;;;;;16.17;8.95;;;;;;;;;;5017245;28;92443;-73
2022/05/06 12:28:52;;;;;;;14.30;9.20;;;;;;;;;;5013940;28;92986;-73
2022/05/06 12:31:25;;;;;;;13.45;8.73;;;;;;;;;;5014492;28;93199;-73
2022/05/06 12:33:58;;;;;;;13.82;10.00;;;;;;;;;;5014234;28;92772;-73
2022/05/06 12:36:25;;;;;;;16.73;10.30;;;;;;;;;;5012069;28;93179;-73
2022/05/06 12:38:51;;;;;;;18.42;10.13;;;;;;;;;;5013044;28;92365;-72
2022/05/06 12:41:21;;;;;;;16.90;8.48;;;;;;;;;;5013479;28;92453;-72
2022/05/06 12:43:49;;;;;;;15.38;9.95;;;;;;;;;;5012742;28;93171;-72
2022/05/06 12:46:26;;;;;;;20.80;8.68;;;;;;;;;;5012063;28;96012;-73
2022/05/06 12:51:39;;;;;;;20.17;8.55;;;;;;;;;;5013613;28;93283;-72
2022/05/06 12:54:05;;;;;;;13.02;8.25;;;;;;;;;;5013893;28;92689;-72
2022/05/06 12:56:32;;;;;;;19.55;9.80;;;;;;;;;;4996210;28;93123;-72
2022/05/06 12:58:59;;;;;;;23.13;13.27;;;;;;;;;;5014075;28;94544;-72
2022/05/06 13:01:25;;;;;;;26.10;15.18;;;;;;;;;;5013036;28;92383;-73
2022/05/06 13:03:51;;;;;;;23.30;13.88;;;;;;;;;;5012869;28;93456;-73
2022/05/06 13:06:18;;;;;;;22.73;13.27;;;;;;;;;;5013542;28;95141;-72
2022/05/06 13:08:44;;;;;;;19.42;12.93;;;;;;;;;;4995898;28;92496;-73
2022/05/06 13:11:10;;;;;;;26.40;13.60;;;;;;;;;;5014127;28;94729;-73
2022/05/06 13:13:37;;;;;;;27.45;14.52;;;;;;;;;;5016218;28;92459;-72
2022/05/06 13:16:03;;;;;;;29.92;15.43;;;;;;;;;;5016425;28;92999;-73
2022/05/06 13:18:32;;;;;;;26.45;15.65;;;;;;;;;;4998719;28;93448;-73
2022/05/06 13:20:59;;;;;;;22.63;15.20;;;;;;;;;;5016062;28;92423;-73
2022/05/06 13:23:25;;;;;;;33.17;15.65;;;;;;;;;;5015879;28;93006;-73
2022/05/06 13:25:52;;;;;;;21.73;13.27;;;;;;;;;;5016162;28;92962;-73
2022/05/06 13:28:18;;;;;;;21.33;14.43;;;;;;;;;;5016702;28;91625;-73
2022/05/06 13:30:44;;;;;;;22.52;13.52;;;;;;;;;;5016671;28;92331;-72
2022/05/06 13:33:10;;;;;;;24.75;14.13;;;;;;;;;;5018892;28;93347;-73
2022/05/06 13:35:37;;;;;;;22.27;12.40;;;;;;;;;;4996839;28;94868;-73
2022/05/06 13:38:03;;;;;;;27.52;13.98;;;;;;;;;;5015765;28;93305;-73
2022/05/06 13:40:29;;;;;;;24.73;15.00;;;;;;;;;;5015630;28;92481;-73
2022/05/06 13:42:56;;;;;;;36.85;15.15;;;;;;;;;;5015955;28;92418;-73
2022/05/06 13:45:22;;;;;;;23.55;14.18;;;;;;;;;;5015547;28;93414;-72
2022/05/06 13:47:48;;;;;;;23.95;13.77;;;;;;;;;;5015754;28;92346;-72
2022/05/06 13:50:15;;;;;;;22.17;13.50;;;;;;;;;;5015759;28;93182;-72
2022/05/06 13:52:42;;;;;;;22.50;12.40;;;;;;;;;;5015909;28;92741;-72
2022/05/06 13:55:08;;;;;;;22.55;12.10;;;;;;;;;;5018878;28;92452;-72
2022/05/06 14:00:30;;;;;;;21.42;12.82;;;;;;;;;;5014720;28;94761;-72
2022/05/06 14:02:58;;;;;;;17.40;11.07;;;;;;;;;;5015376;28;95571;-73
2022/05/06 14:05:24;;;;;;;24.98;13.43;;;;;;;;;;5015168;28;93399;-72
2022/05/06 14:07:52;;;;;;;27.00;12.88;;;;;;;;;;5015440;28;92387;-72
2022/05/06 14:10:18;;;;;;;19.55;12.32;;;;;;;;;;5015341;28;93303;-73
2022/05/06 14:12:45;;;;;;;19.85;13.63;;;;;;;;;;5015354;28;93143;-71
2022/05/06 14:15:11;;;;;;;22.45;13.00;;;;;;;;;;5018508;28;92403;-72
2022/05/06 14:17:37;;;;;;;19.80;12.95;;;;;;;;;;5015758;28;92620;-73
2022/05/06 14:20:04;;;;;;;23.83;12.95;;;;;;;;;;4997652;28;92508;-72
2022/05/06 14:22:30;;;;;;;21.10;13.35;;;;;;;;;;5015163;28;92868;-73
2022/05/06 14:24:57;;;;;;;20.88;13.05;;;;;;;;;;5012860;28;97015;-72
2022/05/06 14:27:23;;;;;;;22.27;12.95;;;;;;;;;;5015410;28;92493;-72
2022/05/06 14:29:49;;;;;;;21.55;12.40;;;;;;;;;;5015050;28;92365;-72
2022/05/06 14:32:16;;;;;;;20.27;13.30;;;;;;;;;;5014881;28;93759;-72
2022/05/06 14:34:42;;;;;;;21.13;13.52;;;;;;;;;;5013983;28;92412;-72
2022/05/06 14:37:08;;;;;;;23.63;13.80;;;;;;;;;;5018648;28;94955;-72
2022/05/06 14:39:35;;;;;;;24.23;13.93;;;;;;;;;;5015091;28;92282;-72
2022/05/06 14:42:01;;;;;;;23.75;13.15;;;;;;;;;;5015397;28;93014;-72
2022/05/06 14:44:31;;;;;;;21.00;12.50;;;;;;;;;;5015446;28;92391;-72
2022/05/06 14:46:59;;;;;;;18.73;13.73;;;;;;;;;;5014976;28;93125;-72
2022/05/06 14:49:26;;;;;;;19.80;12.75;;;;;;;;;;5013900;28;94751;-72
2022/05/06 14:51:52;;;;;;;17.55;11.77;;;;;;;;;;5013537;28;93491;-72
2022/05/06 14:54:18;;;;;;;16.23;11.40;;;;;;;;;;5015500;28;92492;-72
2022/05/06 14:56:44;;;;;;;18.25;11.55;;;;;;;;;;5014893;28;93440;-72
2022/05/06 14:59:11;;;;;;;15.40;10.88;;;;;;;;;;5000518;28;93399;-72
2022/05/06 15:01:37;;;;;;;16.60;10.70;;;;;;;;;;5014879;28;94216;-72
2022/05/06 15:04:03;;;;;;;16.58;10.60;;;;;;;;;;5014114;28;93330;-72
2022/05/06 15:06:30;;;;;;;12.52;11.15;;;;;;;;;;5015100;28;91739;-72